Time;durP1;ratioP1;P1;durP2;ratioP2;P2;SDS_P1;SDS_P2;PMS_P1;PMS_P2;Temp;Humidity;BMP_temperature;BMP_pressure;BME280_temperature;BME280_humidity;BME280_pressure;Samples;Min_cycle;Max_cycle;Signal;HPM_P1;HPM_P2
2022/01/08 00:00:09;;;;;;;4.07;0.82;;;5.60;92.80;;;;;;5054193;28;20040;-70
2022/01/08 00:02:39;;;;;;;1.65;0.70;;;5.60;92.80;;;;;;5021190;28;20080;-71
2022/01/08 00:05:05;;;;;;;0.75;0.75;;;5.50;92.80;;;;;;5025712;28;20045;-71
2022/01/08 00:07:31;;;;;;;0.30;0.30;;;5.50;92.80;;;;;;5035409;28;20056;-71
2022/01/08 00:09:56;;;;;;;2.35;0.93;;;5.50;92.80;;;;;;5028582;28;20490;-71
2022/01/08 00:12:23;;;;;;;1.60;1.02;;;5.50;92.90;;;;;;5052427;28;20051;-68
2022/01/08 00:14:49;;;;;;;0.85;0.75;;;5.50;92.80;;;;;;5053496;28;20032;-68
2022/01/08 00:17:14;;;;;;;0.65;0.65;;;5.50;93.00;;;;;;5054290;28;20112;-68
2022/01/08 00:19:40;;;;;;;4.80;1.08;;;5.40;92.70;;;;;;5053838;28;20033;-68
2022/01/08 00:22:06;;;;;;;1.98;1.00;;;5.40;92.70;;;;;;5052974;28;20056;-68
2022/01/08 00:24:31;;;;;;;1.25;1.02;;;5.30;92.80;;;;;;5054287;28;20087;-68
2022/01/08 00:26:57;;;;;;;3.92;1.30;;;5.30;92.80;;;;;;5047530;28;20041;-69
2022/01/08 00:29:23;;;;;;;1.58;1.25;;;5.30;92.90;;;;;;5047490;28;20029;-68
2022/01/08 00:31:48;;;;;;;0.57;0.55;;;5.30;92.90;;;;;;5027305;28;20065;-68
2022/01/08 00:34:14;;;;;;;4.97;1.30;;;5.30;92.90;;;;;;5040137;28;20039;-69
2022/01/08 00:36:40;;;;;;;1.85;1.23;;;5.20;92.90;;;;;;5053522;28;20024;-68
2022/01/08 00:39:06;;;;;;;0.80;0.80;;;5.20;92.90;;;;;;5052411;28;20021;-68
2022/01/08 00:41:31;;;;;;;1.63;1.42;;;5.20;93.00;;;;;;5045468;28;20400;-68
2022/01/08 00:43:57;;;;;;;2.40;1.98;;;5.20;93.00;;;;;;5033800;28;20026;-68
2022/01/08 00:46:23;;;;;;;1.08;1.08;;;5.30;93.10;;;;;;5041965;28;20388;-68
2022/01/08 00:48:49;;;;;;;0.60;0.60;;;5.30;93.10;;;;;;5053012;28;20056;-69
2022/01/08 00:51:14;;;;;;;0.70;0.70;;;5.30;93.00;;;;;;5053691;28;20040;-69
2022/01/08 00:53:40;;;;;;;0.80;0.73;;;5.30;92.90;;;;;;5027238;28;20026;-70
2022/01/08 00:56:14;;;;;;;1.10;0.73;;;5.40;92.90;;;;;;5035301;28;20474;-69
2022/01/08 00:58:41;;;;;;;2.90;1.10;;;5.30;92.80;;;;;;5046874;28;20013;-69
2022/01/08 01:01:07;;;;;;;2.92;1.00;;;5.40;92.80;;;;;;5043641;28;20033;-69
2022/01/08 01:03:33;;;;;;;5.60;1.33;;;5.40;92.80;;;;;;5019512;28;20461;-69
2022/01/08 01:05:59;;;;;;;1.42;0.93;;;5.30;92.80;;;;;;5034025;28;20033;-69
2022/01/08 01:08:25;;;;;;;0.40;0.40;;;5.30;92.80;;;;;;5045416;28;20090;-69
2022/01/08 01:10:53;;;;;;;1.73;0.82;;;5.30;92.80;;;;;;5025931;28;20126;-69
2022/01/08 01:13:22;;;;;;;2.80;1.08;;;5.20;92.80;;;;;;5053201;28;20035;-69
2022/01/08 01:15:47;;;;;;;1.38;0.68;;;5.20;92.80;;;;;;5052872;28;20074;-69
2022/01/08 01:18:13;;;;;;;2.95;0.85;;;5.20;92.90;;;;;;5026231;28;20031;-69
2022/01/08 01:20:39;;;;;;;2.03;1.08;;;5.20;92.90;;;;;;5040347;28;20107;-69
2022/01/08 01:23:14;;;;;;;4.78;1.50;;;5.10;92.90;;;;;;5052219;28;20068;-70
2022/01/08 01:25:49;;;;;;;1.88;1.05;;;5.10;92.90;;;;;;5053366;28;20037;-69
2022/01/08 01:47:01;;;;;;;2.67;1.38;;;4.90;93.20;;;;;;5031355;28;19910;-69
2022/01/08 01:49:36;;;;;;;1.13;1.00;;;4.90;93.30;;;;;;5043602;28;20049;-70
2022/01/08 01:52:04;;;;;;;4.72;1.30;;;4.90;93.30;;;;;;5046573;28;20052;-69
2022/01/08 01:54:31;;;;;;;2.15;1.50;;;4.90;93.40;;;;;;5052514;28;20469;-69
2022/01/08 01:56:59;;;;;;;3.97;1.73;;;4.90;93.40;;;;;;5050679;28;20025;-69
2022/01/08 01:59:29;;;;;;;3.85;2.10;;;4.90;93.50;;;;;;5051784;28;20546;-69
2022/01/08 02:01:55;;;;;;;2.25;1.60;;;4.80;93.50;;;;;;5052067;28;20017;-69
2022/01/08 02:04:20;;;;;;;1.50;1.15;;;4.90;93.50;;;;;;5047315;28;20370;-69
2022/01/08 02:06:46;;;;;;;1.52;1.15;;;4.80;93.50;;;;;;5037738;28;20029;-69
2022/01/08 02:09:12;;;;;;;2.95;1.58;;;4.90;93.50;;;;;;5049276;28;20032;-69
2022/01/08 02:12:01;;;;;;;1.42;1.20;;;4.90;93.50;;;;;;5040531;28;20037;-69
2022/01/08 02:14:29;;;;;;;3.55;1.73;;;4.80;93.50;;;;;;5023176;28;20180;-69
2022/01/08 02:16:55;;;;;;;4.13;1.55;;;4.80;93.50;;;;;;5044100;28;20037;-69
2022/01/08 02:19:21;;;;;;;3.20;1.33;;;4.80;93.50;;;;;;5051632;28;20033;-70
2022/01/08 02:21:58;;;;;;;2.33;1.30;;;4.80;93.80;;;;;;5052091;28;20021;-69
2022/01/08 02:24:25;;;;;;;1.98;1.42;;;4.80;93.60;;;;;;5052443;28;20028;-69
2022/01/08 02:26:51;;;;;;;2.10;1.45;;;4.80;93.60;;;;;;5023840;28;20032;-69
2022/01/08 02:29:19;;;;;;;5.05;1.92;;;4.80;93.60;;;;;;5052264;28;20029;-69
2022/01/08 02:32:15;;;;;;;1.30;1.20;;;4.80;93.70;;;;;;5039128;28;20445;-69
2022/01/08 02:34:42;;;;;;;2.35;1.63;;;4.80;93.80;;;;;;5042796;28;20077;-69
2022/01/08 02:37:08;;;;;;;1.20;1.02;;;4.80;93.70;;;;;;5012640;28;20367;-69
2022/01/08 02:39:38;;;;;;;1.63;1.33;;;4.80;93.80;;;;;;5046044;28;20494;-69
2022/01/08 02:42:10;;;;;;;4.35;1.60;;;4.80;93.80;;;;;;5028646;28;20560;-69
2022/01/08 02:44:36;;;;;;;3.88;1.42;;;4.80;93.80;;;;;;5038818;28;20108;-69
2022/01/08 02:47:02;;;;;;;2.33;1.60;;;4.80;93.80;;;;;;5051956;28;20565;-69
2022/01/08 02:49:32;;;;;;;1.80;1.70;;;4.80;93.80;;;;;;5051156;28;20053;-69
2022/01/08 02:51:58;;;;;;;3.13;1.23;;;4.80;93.90;;;;;;5025529;28;20041;-69
2022/01/08 02:54:23;;;;;;;2.65;1.50;;;4.80;93.90;;;;;;5035705;28;20485;-69
2022/01/08 02:56:49;;;;;;;4.18;3.28;;;4.80;93.90;;;;;;5012462;28;20026;-69
2022/01/08 02:59:16;;;;;;;0.82;0.82;;;4.80;93.90;;;;;;5025583;28;20057;-69
2022/01/08 03:01:42;;;;;;;0.70;0.70;;;4.80;93.90;;;;;;5043899;28;20037;-70
2022/01/08 03:04:09;;;;;;;0.60;0.60;;;4.80;93.90;;;;;;5052476;28;20079;-69
2022/01/08 03:06:34;;;;;;;1.10;1.00;;;4.80;93.90;;;;;;5029843;28;20029;-69
2022/01/08 03:09:00;;;;;;;1.08;0.98;;;4.90;93.80;;;;;;5018055;28;20429;-69
2022/01/08 03:11:26;;;;;;;0.80;0.80;;;4.90;93.80;;;;;;5027288;28;20041;-69
2022/01/08 03:13:51;;;;;;;1.27;1.02;;;4.90;93.70;;;;;;5040423;28;20095;-69
2022/01/08 03:16:20;;;;;;;0.95;0.95;;;4.90;93.70;;;;;;5039674;28;20033;-69
2022/01/08 03:18:49;;;;;;;1.38;1.08;;;4.90;93.60;;;;;;5041693;28;20026;-69
2022/01/08 03:21:18;;;;;;;1.70;0.75;;;4.90;93.60;;;;;;5036871;28;20037;-69
2022/01/08 03:24:00;;;;;;;0.57;0.57;;;4.90;93.60;;;;;;5029242;28;20049;-69
2022/01/08 03:26:28;;;;;;;1.42;0.70;;;5.00;93.60;;;;;;5037612;28;20064;-69
2022/01/08 03:28:55;;;;;;;4.13;1.40;;;5.00;93.50;;;;;;5037641;28;20041;-69
2022/01/08 03:31:22;;;;;;;0.35;0.35;;;5.00;93.50;;;;;;5040979;28;20045;-69
2022/01/08 03:33:49;;;;;;;0.50;0.50;;;5.00;93.50;;;;;;5055355;28;20064;-69
2022/01/08 03:36:17;;;;;;;0.75;0.50;;;5.00;93.40;;;;;;5052852;28;20033;-70
2022/01/08 03:38:43;;;;;;;0.98;0.80;;;5.00;93.40;;;;;;5025680;28;20034;-69
2022/01/08 03:41:09;;;;;;;0.57;0.57;;;5.00;93.40;;;;;;5046246;28;20033;-69
2022/01/08 03:43:35;;;;;;;1.05;0.75;;;5.00;93.30;;;;;;5054240;28;20031;-70
2022/01/08 03:46:03;;;;;;;1.85;0.70;;;5.00;93.30;;;;;;5042782;28;20421;-69
2022/01/08 03:48:44;;;;;;;1.10;0.85;;;5.00;93.30;;;;;;5024852;28;20485;-70
2022/01/08 03:51:12;;;;;;;0.95;0.80;;;4.90;93.30;;;;;;5035700;28;20046;-69
2022/01/08 03:53:38;;;;;;;0.80;0.80;;;4.90;93.30;;;;;;5041436;28;20036;-69
2022/01/08 03:56:04;;;;;;;1.30;0.70;;;4.90;93.30;;;;;;5041439;28;20118;-69
2022/01/08 03:58:29;;;;;;;0.50;0.50;;;4.90;93.20;;;;;;5034270;28;20505;-69
2022/01/08 04:00:55;;;;;;;11.15;1.63;;;4.90;93.20;;;;;;5042891;28;20488;-69
2022/01/08 04:03:24;;;;;;;3.92;1.83;;;4.90;93.20;;;;;;5054481;28;20045;-69
2022/01/08 04:05:50;;;;;;;3.40;0.82;;;4.80;93.20;;;;;;5054071;28;20126;-69
2022/01/08 04:08:17;;;;;;;0.70;0.70;;;4.90;93.30;;;;;;5035056;28;20029;-69
2022/01/08 04:10:43;;;;;;;1.00;0.90;;;4.90;93.30;;;;;;5053517;28;20094;-69
2022/01/08 04:13:13;;;;;;;1.40;0.98;;;4.90;93.20;;;;;;5040525;28;20034;-69
2022/01/08 04:15:42;;;;;;;0.77;0.77;;;4.90;93.20;;;;;;5054528;28;20064;-69
2022/01/08 04:18:09;;;;;;;1.08;0.85;;;4.90;93.10;;;;;;5052374;28;20090;-69
2022/01/08 04:20:44;;;;;;;1.05;0.98;;;4.90;93.10;;;;;;5047106;28;20480;-69
2022/01/08 04:23:10;;;;;;;5.65;1.20;;;4.90;93.10;;;;;;5028088;28;20380;-69
2022/01/08 04:25:35;;;;;;;0.70;0.70;;;4.80;93.10;;;;;;5043874;28;20029;-69
2022/01/08 04:28:01;;;;;;;1.95;1.15;;;4.80;93.10;;;;;;5052171;28;20078;-69
2022/01/08 04:30:27;;;;;;;0.77;0.75;;;4.80;93.10;;;;;;5041288;28;20064;-69
2022/01/08 04:32:53;;;;;;;2.22;1.17;;;4.80;93.10;;;;;;5022098;28;20449;-71
2022/01/08 04:35:18;;;;;;;2.42;1.48;;;4.70;93.10;;;;;;5049765;28;20526;-71
2022/01/08 04:37:44;;;;;;;2.03;1.27;;;4.70;93.20;;;;;;5023068;28;20036;-69
2022/01/08 04:40:15;;;;;;;2.50;1.13;;;4.60;93.20;;;;;;5049145;28;20381;-69
2022/01/08 04:42:41;;;;;;;2.58;1.02;;;4.50;93.40;;;;;;5034521;28;20128;-69
2022/01/08 04:45:07;;;;;;;5.85;1.10;;;4.50;93.50;;;;;;5044322;28;20103;-69
2022/01/08 04:47:32;;;;;;;4.95;1.35;;;4.50;93.60;;;;;;5023286;28;20026;-68
2022/01/08 04:50:01;;;;;;;3.88;1.10;;;4.50;93.70;;;;;;5021492;28;20039;-69
2022/01/08 04:52:26;;;;;;;3.63;1.27;;;4.40;93.70;;;;;;5032067;28;20034;-69
2022/01/08 04:54:52;;;;;;;2.10;1.10;;;4.40;93.70;;;;;;5039505;28;20021;-69
2022/01/08 04:57:17;;;;;;;3.55;1.30;;;4.40;93.80;;;;;;5013932;28;20179;-69
2022/01/08 04:59:43;;;;;;;1.27;0.85;;;4.40;93.90;;;;;;5028718;28;20025;-69
2022/01/08 05:02:09;;;;;;;0.95;0.70;;;4.30;93.90;;;;;;5029914;28;20052;-69
2022/01/08 05:04:34;;;;;;;3.08;1.30;;;4.30;94.00;;;;;;5050571;28;20029;-69
2022/01/08 05:07:00;;;;;;;1.23;1.10;;;4.30;93.90;;;;;;5053725;28;20107;-69
2022/01/08 05:09:26;;;;;;;3.97;1.33;;;4.40;94.00;;;;;;5052617;28;20518;-69
2022/01/08 05:11:51;;;;;;;6.18;1.45;;;4.30;94.00;;;;;;5040899;28;20064;-69
2022/01/08 05:14:17;;;;;;;1.45;1.00;;;4.30;94.00;;;;;;5040294;28;20049;-69
2022/01/08 05:16:45;;;;;;;3.85;1.35;;;4.30;94.10;;;;;;5038923;28;20033;-69
2022/01/08 05:19:10;;;;;;;5.85;1.23;;;4.30;94.20;;;;;;5046649;28;20029;-69
2022/01/08 05:21:38;;;;;;;2.67;1.25;;;4.20;94.20;;;;;;5019838;28;20405;-69
2022/01/08 05:24:04;;;;;;;3.30;1.00;;;4.30;94.20;;;;;;5020311;28;20075;-69
2022/01/08 05:26:30;;;;;;;0.85;0.85;;;4.30;94.30;;;;;;5034027;28;20044;-69
2022/01/08 05:28:56;;;;;;;3.05;1.40;;;4.30;94.30;;;;;;5053058;28;20025;-69
2022/01/08 05:31:23;;;;;;;3.72;0.95;;;4.30;94.30;;;;;;5036265;28;20072;-69
2022/01/08 05:33:50;;;;;;;2.85;1.08;;;4.30;94.30;;;;;;5042938;28;20039;-69
2022/01/08 05:36:16;;;;;;;1.95;1.00;;;4.30;94.20;;;;;;5052126;28;20039;-69
2022/01/08 05:38:42;;;;;;;0.93;0.93;;;4.30;94.20;;;;;;5053048;28;20037;-69
2022/01/08 05:41:07;;;;;;;2.28;1.10;;;4.30;94.20;;;;;;5052702;28;20395;-68
2022/01/08 05:43:34;;;;;;;2.00;1.00;;;4.30;94.20;;;;;;5050263;28;20040;-69
2022/01/08 05:46:00;;;;;;;0.93;0.93;;;4.30;94.10;;;;;;5039678;28;20069;-69
2022/01/08 05:48:26;;;;;;;1.08;0.98;;;4.30;94.10;;;;;;5052625;28;20130;-68
2022/01/08 05:50:52;;;;;;;2.45;0.85;;;4.30;94.10;;;;;;5051871;28;20072;-69
2022/01/08 05:53:20;;;;;;;1.17;0.93;;;4.40;94.10;;;;;;5052640;28;20144;-68
2022/01/08 05:55:46;;;;;;;1.45;1.10;;;4.40;94.00;;;;;;5047613;28;20061;-69
2022/01/08 05:58:12;;;;;;;1.65;1.02;;;4.40;94.00;;;;;;5031983;28;20095;-68
2022/01/08 06:00:38;;;;;;;0.88;0.88;;;4.40;93.90;;;;;;5038682;28;20033;-69
2022/01/08 06:03:06;;;;;;;2.40;1.23;;;4.40;93.90;;;;;;5052402;28;20033;-69
2022/01/08 06:05:32;;;;;;;2.38;1.17;;;4.40;93.90;;;;;;5025661;28;20037;-69
2022/01/08 06:07:58;;;;;;;0.60;0.60;;;4.40;93.90;;;;;;5052344;28;20028;-69
2022/01/08 06:10:26;;;;;;;1.48;0.98;;;4.40;93.90;;;;;;5037872;28;20393;-69
2022/01/08 06:12:55;;;;;;;0.55;0.55;;;4.50;93.90;;;;;;5028164;28;20025;-68
2022/01/08 06:15:21;;;;;;;0.82;0.82;;;4.50;93.90;;;;;;5052316;28;20453;-68
2022/01/08 06:17:47;;;;;;;1.75;0.95;;;4.50;93.90;;;;;;5023900;28;20042;-69
2022/01/08 06:20:12;;;;;;;0.60;0.60;;;4.50;93.80;;;;;;5036867;28;20107;-68
2022/01/08 06:22:38;;;;;;;3.20;1.48;;;4.50;93.80;;;;;;5014632;28;20108;-68
2022/01/08 06:25:04;;;;;;;0.60;0.60;;;4.50;93.70;;;;;;5014563;28;20026;-68
2022/01/08 06:27:30;;;;;;;0.40;0.40;;;4.50;93.70;;;;;;5011242;28;20045;-68
2022/01/08 06:29:56;;;;;;;0.60;0.60;;;4.60;93.70;;;;;;5012791;28;20033;-68
2022/01/08 06:32:21;;;;;;;0.80;0.80;;;4.50;93.60;;;;;;5013918;28;20493;-68
2022/01/08 06:34:48;;;;;;;0.75;0.60;;;4.50;93.60;;;;;;5013869;28;20038;-69
2022/01/08 06:37:14;;;;;;;0.47;0.47;;;4.60;93.50;;;;;;5021609;28;20044;-69
2022/01/08 06:39:40;;;;;;;1.02;0.98;;;4.60;93.50;;;;;;5015061;28;20026;-69
2022/01/08 06:42:05;;;;;;;1.02;0.85;;;4.60;93.50;;;;;;5015640;28;20466;-69
2022/01/08 06:44:31;;;;;;;0.57;0.57;;;4.50;93.40;;;;;;5018567;28;20113;-70
2022/01/08 06:46:57;;;;;;;1.00;0.85;;;4.60;93.40;;;;;;5015271;28;20018;-69
2022/01/08 06:49:23;;;;;;;0.63;0.63;;;4.60;93.40;;;;;;5015105;28;20054;-70
2022/01/08 06:51:50;;;;;;;1.27;0.95;;;4.60;93.30;;;;;;5018191;28;20041;-69
2022/01/08 06:54:15;;;;;;;5.95;1.10;;;4.50;93.30;;;;;;5014877;28;20038;-69
2022/01/08 06:56:41;;;;;;;0.57;0.57;;;4.50;93.30;;;;;;5021200;28;20064;-69
2022/01/08 06:59:07;;;;;;;0.60;0.60;;;4.50;93.30;;;;;;5017150;28;20088;-70
2022/01/08 07:01:32;;;;;;;3.70;1.40;;;4.50;93.30;;;;;;5014923;28;20036;-69
2022/01/08 07:03:58;;;;;;;0.40;0.40;;;4.50;93.30;;;;;;5015957;28;20014;-69
2022/01/08 07:06:24;;;;;;;0.93;0.70;;;4.40;93.30;;;;;;5036486;28;20036;-69
2022/01/08 07:08:50;;;;;;;1.38;1.02;;;4.40;93.40;;;;;;5028417;28;20057;-69
2022/01/08 07:11:16;;;;;;;1.67;0.70;;;4.40;93.40;;;;;;5030940;28;20046;-69
2022/01/08 07:13:42;;;;;;;0.82;0.82;;;4.40;93.40;;;;;;5015433;28;20030;-69
2022/01/08 07:16:08;;;;;;;0.90;0.77;;;4.40;93.40;;;;;;5014563;28;20053;-69
2022/01/08 07:18:34;;;;;;;4.53;1.10;;;4.50;93.40;;;;;;5015655;28;20056;-69
2022/01/08 07:21:00;;;;;;;0.63;0.63;;;4.40;93.40;;;;;;5018726;28;20018;-69
2022/01/08 07:23:25;;;;;;;0.77;0.75;;;4.50;93.40;;;;;;5018190;28;20386;-69
2022/01/08 07:25:51;;;;;;;0.82;0.82;;;4.50;93.30;;;;;;5015085;28;20029;-69
2022/01/08 07:28:17;;;;;;;1.33;0.88;;;4.50;93.30;;;;;;5017899;28;20037;-69
2022/01/08 07:30:42;;;;;;;0.90;0.90;;;4.50;93.30;;;;;;5016563;28;20045;-69
2022/01/08 07:33:08;;;;;;;1.02;0.90;;;4.50;93.20;;;;;;5014882;28;20478;-69
2022/01/08 07:35:34;;;;;;;1.58;1.15;;;4.50;93.20;;;;;;5017464;28;20033;-69
2022/01/08 07:37:59;;;;;;;2.25;1.00;;;4.50;93.20;;;;;;5014124;28;20389;-69
2022/01/08 07:40:25;;;;;;;1.88;1.42;;;4.50;93.10;;;;;;5015761;28;20049;-69
2022/01/08 07:42:51;;;;;;;1.30;1.10;;;4.50;93.40;;;;;;5054167;28;20025;-69
2022/01/08 07:45:17;;;;;;;0.77;0.77;;;4.50;93.10;;;;;;5027546;28;20037;-69
2022/01/08 07:47:44;;;;;;;1.40;1.30;;;4.50;93.10;;;;;;5013761;28;20117;-69
2022/01/08 07:50:10;;;;;;;1.40;1.30;;;4.40;93.10;;;;;;5019377;28;20034;-69
2022/01/08 07:52:36;;;;;;;5.03;1.20;;;4.40;93.10;;;;;;5014903;28;20045;-69
2022/01/08 07:55:02;;;;;;;6.13;2.05;;;4.40;93.10;;;;;;5045798;28;20032;-69
2022/01/08 07:57:28;;;;;;;0.98;0.98;;;4.40;93.10;;;;;;5036188;28;20052;-71
2022/01/08 07:59:54;;;;;;;1.48;0.98;;;4.40;93.10;;;;;;5014700;28;20405;-70
2022/01/08 08:02:20;;;;;;;7.65;2.15;;;4.30;93.10;;;;;;5038722;28;20039;-69
2022/01/08 08:04:45;;;;;;;3.30;1.10;;;4.40;93.20;;;;;;5054046;28;20087;-69
2022/01/08 08:07:11;;;;;;;2.75;1.48;;;4.30;93.20;;;;;;5048595;28;20045;-69
2022/01/08 08:09:37;;;;;;;1.08;0.98;;;4.30;93.30;;;;;;5046971;28;20078;-69
2022/01/08 08:12:04;;;;;;;3.05;1.63;;;4.30;93.30;;;;;;5021549;28;20046;-69
2022/01/08 08:14:31;;;;;;;1.27;1.20;;;4.30;93.30;;;;;;5014145;28;20057;-69
2022/01/08 08:16:56;;;;;;;0.57;0.57;;;4.40;93.40;;;;;;5021394;28;20033;-70
2022/01/08 08:19:22;;;;;;;0.60;0.60;;;4.40;93.30;;;;;;5031601;28;20078;-69
2022/01/08 08:21:48;;;;;;;4.05;2.15;;;4.40;93.30;;;;;;5032287;28;20021;-70
2022/01/08 08:24:14;;;;;;;0.60;0.60;;;4.40;93.30;;;;;;5032521;28;20030;-70
2022/01/08 08:26:40;;;;;;;1.30;1.20;;;4.40;93.20;;;;;;5031808;28;20044;-70
2022/01/08 08:29:06;;;;;;;0.82;0.73;;;4.40;93.20;;;;;;5032453;28;20477;-70
2022/01/08 08:31:32;;;;;;;0.80;0.80;;;4.40;93.20;;;;;;5030962;28;20116;-70
2022/01/08 08:33:58;;;;;;;0.70;0.70;;;4.40;93.20;;;;;;5031225;28;20021;-70
2022/01/08 08:36:23;;;;;;;0.80;0.80;;;4.50;93.10;;;;;;5031858;28;20441;-70
2022/01/08 08:38:49;;;;;;;0.68;0.63;;;4.50;93.10;;;;;;5032487;28;20032;-70
2022/01/08 08:41:15;;;;;;;2.08;1.13;;;4.50;93.10;;;;;;5031200;28;20068;-70
2022/01/08 08:43:40;;;;;;;0.90;0.82;;;4.50;93.10;;;;;;5032236;28;20065;-67
2022/01/08 08:46:06;;;;;;;3.08;1.35;;;4.60;93.00;;;;;;5031447;28;20388;-68
2022/01/08 08:48:34;;;;;;;0.98;0.80;;;4.60;93.00;;;;;;5028894;28;20405;-68
2022/01/08 08:51:00;;;;;;;2.05;1.85;;;4.60;93.00;;;;;;5021210;28;20045;-68
2022/01/08 08:53:25;;;;;;;10.50;1.60;;;4.60;92.90;;;;;;5021954;28;20063;-68
2022/01/08 08:55:51;;;;;;;0.85;0.85;;;4.60;92.90;;;;;;5027948;28;20358;-66
2022/01/08 08:58:17;;;;;;;3.72;1.67;;;4.70;92.90;;;;;;5021586;28;20025;-67
2022/01/08 09:00:43;;;;;;;4.15;1.15;;;4.60;92.80;;;;;;5030303;28;20041;-66
2022/01/08 09:03:09;;;;;;;4.57;0.95;;;4.60;92.80;;;;;;5031670;28;20026;-66
2022/01/08 09:05:35;;;;;;;3.30;1.38;;;4.60;92.80;;;;;;5026650;28;20112;-66
2022/01/08 09:08:04;;;;;;;2.30;1.13;;;4.60;92.80;;;;;;5031242;28;20025;-66
2022/01/08 09:10:30;;;;;;;3.90;1.10;;;4.60;92.80;;;;;;5031530;28;20083;-67
2022/01/08 09:12:56;;;;;;;0.90;0.90;;;4.60;92.80;;;;;;5031346;28;20481;-66
2022/01/08 09:15:25;;;;;;;0.90;0.85;;;4.60;92.90;;;;;;5030629;28;20029;-67
2022/01/08 09:17:52;;;;;;;1.63;1.52;;;4.60;92.90;;;;;;5031398;28;20075;-66
2022/01/08 09:20:18;;;;;;;3.70;1.35;;;4.50;92.90;;;;;;5031103;28;20021;-67
2022/01/08 09:22:44;;;;;;;5.15;2.08;;;4.60;93.00;;;;;;5024978;28;20500;-66
2022/01/08 09:25:11;;;;;;;3.65;1.55;;;4.50;93.00;;;;;;5028782;28;20021;-66
2022/01/08 09:27:37;;;;;;;3.70;1.83;;;4.50;93.00;;;;;;5016210;28;20389;-67
2022/01/08 09:30:05;;;;;;;1.58;1.30;;;4.50;93.10;;;;;;5012804;28;20121;-67
2022/01/08 09:32:30;;;;;;;2.50;1.27;;;4.50;93.20;;;;;;5015265;28;20044;-67
2022/01/08 09:34:56;;;;;;;2.10;1.52;;;4.40;93.20;;;;;;5012684;28;20030;-67
2022/01/08 09:37:22;;;;;;;6.10;2.00;;;4.40;93.20;;;;;;5012514;28;20193;-67
2022/01/08 09:39:47;;;;;;;3.97;1.58;;;4.40;93.30;;;;;;5028133;28;20359;-67
2022/01/08 09:42:13;;;;;;;1.75;1.48;;;4.40;93.30;;;;;;5030457;28;20645;-67
2022/01/08 09:44:45;;;;;;;1.65;1.30;;;4.40;93.40;;;;;;5031045;28;20436;-67
2022/01/08 09:47:14;;;;;;;2.55;1.33;;;4.50;93.50;;;;;;5030816;28;20386;-64
2022/01/08 09:49:40;;;;;;;3.45;1.35;;;4.40;93.50;;;;;;5020102;28;20053;-64
2022/01/08 09:52:07;;;;;;;2.05;1.73;;;4.50;93.60;;;;;;5030494;28;20054;-65
2022/01/08 09:54:34;;;;;;;3.60;1.67;;;4.50;93.70;;;;;;5030397;28;20485;-63
2022/01/08 09:57:00;;;;;;;12.98;2.78;;;4.50;93.70;;;;;;5026369;28;20076;-67
2022/01/08 09:59:28;;;;;;;4.68;1.33;;;4.50;93.70;;;;;;5024158;28;20033;-68
2022/01/08 10:02:01;;;;;;;2.58;1.45;;;4.50;93.70;;;;;;5026054;28;20064;-68
2022/01/08 10:04:34;;;;;;;1.73;1.50;;;4.50;93.70;;;;;;5023751;28;20026;-68
2022/01/08 10:07:18;;;;;;;1.95;1.27;;;4.60;93.70;;;;;;5023206;28;20033;-68
2022/01/08 10:10:01;;;;;;;;;;;4.60;93.70;;;;;;5019600;28;20041;-68
2022/01/08 10:12:39;;;;;;;2.10;1.63;;;4.60;93.70;;;;;;5018613;28;20381;-69
2022/01/08 10:17:49;;;;;;;3.60;2.15;;;4.70;93.80;;;;;;5017710;28;20037;-67
2022/01/08 10:20:36;;;;;;;5.65;2.22;;;4.70;93.80;;;;;;5023123;28;20029;-68
2022/01/08 10:23:11;;;;;;;2.50;1.38;;;4.70;93.90;;;;;;5020979;28;20433;-67
2022/01/08 10:25:39;;;;;;;15.75;1.80;;;4.70;93.80;;;;;;5026318;28;20053;-68
2022/01/08 10:28:05;;;;;;;3.63;1.95;;;4.70;93.90;;;;;;5014657;28;20026;-68
2022/01/08 10:30:31;;;;;;;3.20;1.80;;;4.80;93.90;;;;;;5014220;28;20048;-67
2022/01/08 10:32:59;;;;;;;2.92;1.77;;;4.80;93.90;;;;;;5013160;28;20385;-67
2022/01/08 10:35:51;;;;;;;2.53;1.75;;;4.80;93.90;;;;;;5014237;28;20034;-66
2022/01/08 10:38:17;;;;;;;1.50;1.17;;;4.80;94.00;;;;;;5014576;28;20478;-67
2022/01/08 10:40:45;;;;;;;3.85;1.95;;;4.80;93.90;;;;;;5011250;28;20382;-67
2022/01/08 10:43:23;;;;;;;3.50;1.55;;;4.90;94.00;;;;;;5013877;28;20040;-67
2022/01/08 10:45:48;;;;;;;5.57;2.05;;;4.90;94.00;;;;;;5010960;28;20037;-67
2022/01/08 10:48:28;;;;;;;4.13;1.30;;;4.90;94.00;;;;;;5014347;28;20393;-67
2022/01/08 10:51:07;;;;;;;5.70;2.42;;;4.90;94.00;;;;;;5012250;28;20053;-67
2022/01/08 10:54:03;;;;;;;1.60;1.08;;;5.00;94.00;;;;;;5014479;28;20022;-67
2022/01/08 10:56:37;;;;;;;2.40;1.25;;;5.00;93.90;;;;;;5010798;28;20040;-66
2022/01/08 10:59:20;;;;;;;2.28;1.45;;;5.00;93.90;;;;;;5012072;28;20045;-67
2022/01/08 11:02:00;;;;;;;8.02;1.80;;;5.10;93.90;;;;;;5014971;28;20103;-68
2022/01/08 11:04:47;;;;;;;5.57;1.40;;;5.10;93.90;;;;;;5010733;28;20424;-67
2022/01/08 11:07:18;;;;;;;4.60;1.45;;;5.20;94.20;;;;;;5011219;28;20033;-67
2022/01/08 11:09:45;;;;;;;5.78;2.03;;;5.20;93.90;;;;;;5014442;28;20037;-68
2022/01/08 11:12:18;;;;;;;4.95;1.65;;;5.20;93.90;;;;;;5011693;28;20124;-68
2022/01/08 11:17:31;;;;;;;3.72;1.13;;;5.30;93.80;;;;;;5025433;28;20030;-68
2022/01/08 11:19:59;;;;;;;3.22;2.08;;;5.30;93.80;;;;;;5024436;28;20116;-67
2022/01/08 11:22:28;;;;;;;2.72;1.38;;;5.30;93.70;;;;;;5041686;28;20120;-67
2022/01/08 11:25:03;;;;;;;1.23;1.13;;;5.40;93.80;;;;;;5019005;28;20033;-67
2022/01/08 11:27:46;;;;;;;2.63;1.75;;;5.40;93.70;;;;;;5014377;28;20088;-67
2022/01/08 11:30:16;;;;;;;2.80;1.67;;;5.50;93.70;;;;;;5016831;28;20473;-68
2022/01/08 11:32:42;;;;;;;3.58;1.80;;;5.50;93.70;;;;;;5015409;28;20041;-68
2022/01/08 11:35:10;;;;;;;3.72;1.55;;;5.50;93.70;;;;;;5017017;28;20022;-67
2022/01/08 11:37:36;;;;;;;9.18;2.03;;;5.50;93.70;;;;;;5018216;28;20038;-67
2022/01/08 11:40:07;;;;;;;7.00;2.05;;;5.50;93.70;;;;;;5016738;28;20061;-67
2022/01/08 11:42:38;;;;;;;6.63;2.38;;;5.60;93.70;;;;;;5013992;28;20026;-67
2022/01/08 11:45:06;;;;;;;5.80;1.92;;;5.60;93.70;;;;;;5013700;28;20394;-67
2022/01/08 11:47:32;;;;;;;3.65;1.95;;;5.70;93.70;;;;;;5013489;28;20033;-67
2022/01/08 11:50:03;;;;;;;2.45;2.08;;;5.70;93.60;;;;;;5017652;28;20080;-67
2022/01/08 11:52:29;;;;;;;3.40;1.88;;;5.70;93.60;;;;;;5044581;28;20391;-67
2022/01/08 11:54:56;;;;;;;5.75;1.63;;;5.70;93.60;;;;;;5021960;28;20117;-68
2022/01/08 11:57:27;;;;;;;10.20;2.13;;;5.70;93.60;;;;;;5014155;28;20026;-68
2022/01/08 11:59:58;;;;;;;2.13;1.50;;;5.80;93.90;;;;;;5023733;28;20029;-67
2022/01/08 12:02:44;;;;;;;8.57;1.88;;;5.80;93.60;;;;;;5013839;28;20061;-68
2022/01/08 12:05:30;;;;;;;3.90;2.05;;;5.80;93.60;;;;;;5028947;28;20052;-67
2022/01/08 12:08:14;;;;;;;2.35;1.73;;;5.90;93.70;;;;;;5013395;28;20030;-68
2022/01/08 12:10:56;;;;;;;3.70;1.85;;;5.80;93.70;;;;;;5012760;28;20485;-68
2022/01/08 12:13:48;;;;;;;3.75;1.48;;;5.90;93.70;;;;;;5017539;28;20064;-68
2022/01/08 12:16:35;;;;;;;12.02;2.45;;;5.90;94.00;;;;;;5014168;28;20120;-66
2022/01/08 12:19:02;;;;;;;2.38;1.50;;;5.90;93.70;;;;;;5013968;28;20026;-68
2022/01/08 12:21:36;;;;;;;3.25;1.92;;;5.90;93.80;;;;;;5018761;28;20030;-66
2022/01/08 12:24:20;;;;;;;1.58;1.33;;;5.90;93.80;;;;;;5029288;28;20480;-67
2022/01/08 12:26:46;;;;;;;10.73;3.25;;;5.90;93.90;;;;;;5016389;28;20367;-67
2022/01/08 12:29:38;;;;;;;6.53;2.35;;;5.90;93.90;;;;;;5017636;28;20038;-67
2022/01/08 12:32:30;;;;;;;2.72;2.00;;;5.90;94.00;;;;;;5015391;28;20042;-68
2022/01/08 12:35:18;;;;;;;4.65;2.47;;;5.90;93.90;;;;;;5024249;28;20033;-67
2022/01/08 12:37:56;;;;;;;3.13;1.45;;;6.00;94.00;;;;;;5010463;28;20056;-67
2022/01/08 12:40:50;;;;;;;4.15;1.98;;;5.90;94.00;;;;;;5012848;28;20034;-68
2022/01/08 12:43:29;;;;;;;7.28;2.92;;;6.00;94.10;;;;;;5037886;28;20056;-66
2022/01/08 12:46:12;;;;;;;7.53;2.33;;;6.00;94.10;;;;;;5020454;28;20037;-67
2022/01/08 12:48:38;;;;;;;4.50;1.98;;;6.00;94.10;;;;;;5013668;28;20046;-68
2022/01/08 12:51:05;;;;;;;5.70;2.70;;;6.00;94.10;;;;;;5022908;28;20052;-68
2022/01/08 12:53:32;;;;;;;5.50;2.60;;;6.00;94.10;;;;;;5015262;28;20101;-67
2022/01/08 12:55:58;;;;;;;3.58;2.63;;;6.00;94.10;;;;;;5023414;28;20148;-67
2022/01/08 12:58:36;;;;;;;5.97;2.40;;;6.10;94.20;;;;;;5023915;28;20354;-67
2022/01/08 13:01:04;;;;;;;8.60;3.17;;;6.10;94.20;;;;;;5025832;28;20382;-68
2022/01/08 13:03:40;;;;;;;12.18;3.28;;;6.10;94.40;;;;;;5028963;28;20036;-68
2022/01/08 13:06:12;;;;;;;6.53;3.60;;;6.10;94.40;;;;;;5027890;28;20033;-68
2022/01/08 13:08:39;;;;;;;5.95;2.33;;;6.10;94.20;;;;;;5021298;28;20398;-68
2022/01/08 13:11:09;;;;;;;6.55;3.58;;;6.10;94.20;;;;;;5018583;28;20056;-67
2022/01/08 13:13:45;;;;;;;7.45;3.40;;;6.10;94.30;;;;;;5017584;28;20030;-67
2022/01/08 13:16:20;;;;;;;6.68;3.60;;;6.10;94.30;;;;;;5019363;28;20064;-67
2022/01/08 13:18:56;;;;;;;3.33;1.88;;;6.10;94.30;;;;;;5020314;28;20029;-68
2022/01/08 13:21:32;;;;;;;9.57;4.38;;;6.10;94.30;;;;;;5018318;28;20036;-68
2022/01/08 13:24:01;;;;;;;6.13;3.55;;;6.20;94.30;;;;;;5018857;28;20041;-68
2022/01/08 13:26:37;;;;;;;8.10;3.38;;;6.20;94.30;;;;;;5018481;28;20029;-68
2022/01/08 13:29:24;;;;;;;5.95;2.60;;;6.20;94.30;;;;;;5018362;28;20034;-68